Terminal Aerodrome Forecast
Issued by NWS

Home | Current Version | Previous Version | Graphics & Text | Print | Product List | Glossary On
Versions: 1 2 3 4 5 6 7 8 9 10 11 12 13 14 15 16 17 18 19 20 21 22
480
FTUS43 KUNR 101120
TAFGCC
TAF
KGCC 101120Z 1012/1112 25013KT P6SM SCT250
     FM101700 28016KT P6SM SCT250
     FM110400 25009KT P6SM SCT250=

USA.gov is the U.S. government's official web portal to all federal, state and local government web resources and services.